Terminal Aerodrome Forecast
Issued by NWS

Home | Current Version | Previous Version | Text Only | Print | Product List | Glossary On
Versions: 1 2 3 4 5 6 7 8 9 10 11 12 13
000
FTUS46 KMFR 272345
TAFLMT
TAF
KLMT 272345Z 2800/2824 24004KT P6SM SCT150
     FM280300 24008KT P6SM VCSH SCT030 OVC080
     FM280600 24006KT 6SM -SHSN BR SCT015 BKN025 OVC040
     FM281500 30007KT P6SM VCSH BKN030
     FM281800 30010KT P6SM SCT030=

USA.gov is the U.S. government's official web portal to all federal, state and local government web resources and services.